Time;durP1;ratioP1;P1;durP2;ratioP2;P2;SDS_P1;SDS_P2;PMS_P1;PMS_P2;Temp;Humidity;BMP_temperature;BMP_pressure;BME280_temperature;BME280_humidity;BME280_pressure;Samples;Min_cycle;Max_cycle;Signal;HPM_P1;HPM_P2
2023/07/17 00:00:17;;;;;;;7.55;3.88;;;16.80;99.90;;;;;;4827342;29;90367;-32
2023/07/17 00:02:43;;;;;;;3.20;2.92;;;16.70;99.90;;;;;;4827255;28;89458;-33
2023/07/17 00:05:12;;;;;;;5.18;3.17;;;16.70;99.90;;;;;;4836244;29;90631;-40
2023/07/17 00:07:39;;;;;;;6.20;3.35;;;16.70;99.90;;;;;;4840601;28;90471;-35
2023/07/17 00:10:07;;;;;;;5.35;4.20;;;16.70;99.90;;;;;;4825887;29;89874;-34
2023/07/17 00:12:32;;;;;;;4.73;3.57;;;16.70;99.90;;;;;;4825476;29;89365;-41
2023/07/17 00:14:58;;;;;;;4.97;2.88;;;16.70;99.90;;;;;;4826223;29;88336;-37
2023/07/17 00:17:24;;;;;;;4.30;2.72;;;16.70;99.90;;;;;;4826559;29;90324;-38
2023/07/17 00:19:54;;;;;;;3.90;3.50;;;16.70;99.90;;;;;;4825542;29;90013;-37
2023/07/17 00:22:21;;;;;;;4.57;3.03;;;16.70;99.90;;;;;;4825355;29;88790;-38
2023/07/17 00:24:46;;;;;;;5.32;4.25;;;16.70;99.90;;;;;;4825821;29;89358;-35
2023/07/17 00:27:12;;;;;;;6.68;3.70;;;16.70;99.90;;;;;;4825353;29;90552;-35
2023/07/17 00:29:40;;;;;;;4.43;3.05;;;16.70;99.90;;;;;;4826160;29;89958;-33
2023/07/17 00:32:06;;;;;;;;;;;16.70;99.90;;;;;;4825900;29;89942;-37
2023/07/17 00:34:32;;;;;;;4.55;3.30;;;16.70;99.90;;;;;;4826683;29;89519;-37
2023/07/17 00:36:58;;;;;;;6.22;3.50;;;16.70;99.90;;;;;;4823915;29;90326;-42
2023/07/17 00:39:24;;;;;;;4.22;3.03;;;16.70;99.90;;;;;;4833012;29;89377;-35
2023/07/17 00:41:50;;;;;;;4.95;3.90;;;16.70;99.90;;;;;;4830909;29;89645;-34
2023/07/17 00:44:17;;;;;;;5.70;3.83;;;16.70;99.90;;;;;;4827894;28;90679;-35
2023/07/17 00:46:43;;;;;;;3.95;2.83;;;16.70;99.90;;;;;;4825125;29;90178;-37
2023/07/17 00:49:10;;;;;;;7.18;3.72;;;16.70;99.90;;;;;;4824346;29;89600;-33
2023/07/17 00:51:38;;;;;;;4.53;2.97;;;16.70;99.90;;;;;;4825632;29;89487;-37
2023/07/17 00:54:05;;;;;;;10.88;4.05;;;16.70;99.90;;;;;;4825519;29;88214;-37
2023/07/17 00:56:30;;;;;;;7.38;4.55;;;16.70;99.90;;;;;;4840121;28;90173;-35
2023/07/17 00:58:57;;;;;;;4.50;3.38;;;16.70;99.90;;;;;;4826330;28;90543;-41
2023/07/17 01:01:23;;;;;;;4.63;3.80;;;16.70;99.90;;;;;;4835130;29;90248;-34
2023/07/17 01:03:54;;;;;;;6.05;3.83;;;16.70;99.90;;;;;;4827067;28;88965;-38
2023/07/17 01:06:19;;;;;;;5.38;3.42;;;16.70;99.90;;;;;;4824874;29;90323;-38
2023/07/17 01:08:45;;;;;;;4.82;3.85;;;16.70;99.90;;;;;;4828492;29;89845;-45
2023/07/17 01:11:11;;;;;;;6.40;4.00;;;16.70;99.90;;;;;;4833077;29;89658;-40
2023/07/17 01:13:47;;;;;;;5.55;3.40;;;16.70;99.90;;;;;;4824564;29;88470;-33
2023/07/17 01:16:14;;;;;;;3.30;3.00;;;16.70;99.90;;;;;;4825341;29;92020;-36
2023/07/17 01:18:40;;;;;;;6.13;3.47;;;16.70;99.90;;;;;;4824130;29;90576;-38
2023/07/17 01:21:08;;;;;;;8.30;3.47;;;16.70;99.90;;;;;;4824409;29;90529;-35
2023/07/17 01:23:34;;;;;;;;;;;16.70;99.90;;;;;;4824939;29;89785;-38
2023/07/17 01:26:00;;;;;;;6.53;3.70;;;16.60;99.90;;;;;;4826510;29;90422;-35
2023/07/17 01:28:26;;;;;;;6.68;3.55;;;16.60;99.90;;;;;;4827802;29;89640;-33
2023/07/17 01:30:52;;;;;;;4.97;3.20;;;16.60;99.90;;;;;;4825509;29;90675;-32
2023/07/17 01:33:18;;;;;;;8.52;3.38;;;16.60;99.90;;;;;;4824089;29;90112;-33
2023/07/17 01:35:44;;;;;;;9.85;3.40;;;16.60;99.90;;;;;;4825015;29;89065;-34
2023/07/17 01:38:10;;;;;;;5.70;3.50;;;16.50;99.90;;;;;;4824787;29;89410;-39
2023/07/17 01:40:36;;;;;;;6.53;4.05;;;16.60;99.90;;;;;;4825017;29;89733;-42
2023/07/17 01:43:02;;;;;;;9.15;3.42;;;16.50;99.90;;;;;;4824840;29;88825;-36
2023/07/17 01:45:27;;;;;;;4.13;2.92;;;16.50;99.90;;;;;;4824558;29;90237;-38
2023/07/17 01:47:53;;;;;;;3.38;3.03;;;16.50;99.90;;;;;;4824033;29;89522;-41
2023/07/17 01:50:18;;;;;;;4.25;2.85;;;16.40;99.90;;;;;;4834061;29;89375;-34
2023/07/17 01:52:44;;;;;;;4.18;2.60;;;16.40;99.90;;;;;;4826993;29;89581;-34
2023/07/17 01:55:10;;;;;;;4.50;2.42;;;16.40;99.90;;;;;;4824945;29;90926;-35
2023/07/17 01:57:35;;;;;;;5.28;4.00;;;16.40;99.90;;;;;;4824238;29;89775;-36
2023/07/17 02:00:02;;;;;;;3.70;2.67;;;16.40;99.90;;;;;;4824600;29;89508;-33
2023/07/17 02:02:28;;;;;;;4.72;2.35;;;16.30;99.90;;;;;;4827179;29;88897;-35
2023/07/17 02:04:53;;;;;;;4.45;2.50;;;16.30;99.90;;;;;;4833700;29;89881;-34
2023/07/17 02:07:19;;;;;;;3.83;2.53;;;16.30;99.90;;;;;;4845180;29;91028;-39
2023/07/17 02:09:45;;;;;;;6.72;3.25;;;16.30;99.90;;;;;;4846082;29;89362;-34
2023/07/17 02:12:10;;;;;;;6.95;2.83;;;16.30;99.90;;;;;;4845557;29;88394;-34
2023/07/17 02:14:36;;;;;;;6.13;2.28;;;16.20;99.90;;;;;;4845795;29;90338;-34
2023/07/17 02:17:01;;;;;;;5.72;2.58;;;16.20;99.90;;;;;;4859569;28;91398;-42
2023/07/17 02:19:27;;;;;;;4.50;2.65;;;16.20;99.90;;;;;;4846321;29;89128;-36
2023/07/17 02:21:53;;;;;;;3.05;2.45;;;16.20;99.90;;;;;;4845007;29;89263;-33
2023/07/17 02:24:19;;;;;;;5.80;2.80;;;16.20;99.90;;;;;;4845714;28;90546;-39
2023/07/17 02:26:44;;;;;;;5.78;2.70;;;16.10;99.90;;;;;;4844670;29;89223;-38
2023/07/17 02:29:10;;;;;;;4.40;2.95;;;16.10;99.90;;;;;;4845398;29;89961;-42
2023/07/17 02:31:36;;;;;;;4.95;3.15;;;16.10;99.90;;;;;;4843328;29;89673;-37
2023/07/17 02:34:01;;;;;;;7.75;3.03;;;16.10;99.90;;;;;;4844298;29;90335;-37
2023/07/17 02:36:28;;;;;;;3.97;3.03;;;16.10;99.90;;;;;;4843676;28;90425;-32
2023/07/17 02:38:53;;;;;;;4.03;2.78;;;16.10;99.90;;;;;;4845183;28;90143;-33
2023/07/17 02:41:19;;;;;;;5.68;3.33;;;16.00;99.90;;;;;;4843935;28;88975;-43
2023/07/17 02:43:45;;;;;;;4.47;2.60;;;16.10;99.90;;;;;;4838068;28;89166;-38
2023/07/17 02:46:10;;;;;;;4.53;2.28;;;16.00;99.90;;;;;;4826970;29;89738;-41
2023/07/17 02:48:36;;;;;;;9.73;2.85;;;16.00;99.90;;;;;;4827348;29;89031;-36
2023/07/17 02:51:03;;;;;;;5.47;2.92;;;16.00;99.90;;;;;;4827478;29;89511;-33
2023/07/17 02:53:29;;;;;;;3.35;2.17;;;16.00;99.90;;;;;;4828026;29;89044;-45
2023/07/17 02:55:54;;;;;;;6.00;2.95;;;16.00;99.90;;;;;;4827909;29;90537;-35
2023/07/17 02:58:20;;;;;;;4.97;3.35;;;16.00;99.90;;;;;;4827396;29;90568;-38
2023/07/17 03:00:46;;;;;;;6.65;2.90;;;15.90;99.90;;;;;;4832488;29;89807;-35
2023/07/17 03:03:12;;;;;;;8.50;2.85;;;15.90;99.90;;;;;;4833947;28;90674;-36
2023/07/17 03:05:37;;;;;;;7.88;3.97;;;15.90;99.90;;;;;;4826791;29;89532;-35
2023/07/17 03:08:03;;;;;;;6.60;3.30;;;15.90;99.90;;;;;;4827510;29;89446;-41
2023/07/17 03:10:29;;;;;;;7.07;3.72;;;15.90;99.90;;;;;;4826101;29;89294;-41
2023/07/17 03:12:55;;;;;;;8.73;3.88;;;15.90;99.90;;;;;;4826080;29;89780;-40
2023/07/17 03:15:21;;;;;;;6.72;3.45;;;15.80;99.90;;;;;;4825662;29;90172;-38
2023/07/17 03:17:46;;;;;;;6.28;3.53;;;15.80;99.90;;;;;;4828068;29;89716;-33
2023/07/17 03:20:13;;;;;;;6.90;3.85;;;15.80;99.90;;;;;;4825952;29;89894;-35
2023/07/17 03:22:39;;;;;;;6.60;3.47;;;15.80;99.90;;;;;;4827464;29;90189;-37
2023/07/17 03:25:05;;;;;;;5.60;3.67;;;15.70;99.90;;;;;;4826840;29;89645;-36
2023/07/17 03:27:31;;;;;;;6.93;3.33;;;15.70;99.90;;;;;;4826249;29;89633;-40
2023/07/17 03:29:57;;;;;;;10.15;3.53;;;15.70;99.90;;;;;;4827035;29;88592;-34
2023/07/17 03:32:23;;;;;;;4.18;3.15;;;15.70;99.90;;;;;;4826627;29;91722;-35
2023/07/17 03:34:48;;;;;;;6.28;3.45;;;15.70;99.90;;;;;;4827346;29;89638;-34
2023/07/17 03:37:14;;;;;;;5.97;3.25;;;15.70;99.90;;;;;;4834029;29;89633;-35
2023/07/17 03:39:40;;;;;;;3.25;2.95;;;15.60;99.90;;;;;;4833871;29;88373;-36
2023/07/17 03:42:10;;;;;;;9.95;5.05;;;15.60;99.90;;;;;;4835250;29;92228;-35
2023/07/17 03:44:39;;;;;;;5.65;3.70;;;15.60;99.90;;;;;;4822046;29;89527;-41
2023/07/17 03:47:06;;;;;;;8.50;3.67;;;15.60;99.90;;;;;;4826290;29;89146;-35
2023/07/17 03:49:32;;;;;;;8.38;4.82;;;15.60;99.90;;;;;;4827099;29;89944;-33
2023/07/17 03:51:58;;;;;;;4.70;3.17;;;15.60;99.90;;;;;;4834025;29;90113;-34
2023/07/17 03:54:24;;;;;;;7.28;3.45;;;15.50;99.90;;;;;;4825863;29;90016;-39
2023/07/17 03:56:50;;;;;;;6.18;3.22;;;15.50;99.90;;;;;;4826409;29;89634;-36
2023/07/17 03:59:15;;;;;;;6.40;3.55;;;15.50;99.90;;;;;;4825777;29;89768;-45
2023/07/17 04:01:41;;;;;;;11.70;4.45;;;15.50;99.90;;;;;;4838857;29;90508;-32
2023/07/17 04:04:07;;;;;;;4.88;3.67;;;15.50;99.90;;;;;;4824851;29;88868;-33
2023/07/17 04:06:32;;;;;;;4.97;3.50;;;15.50;99.90;;;;;;4826576;29;90237;-34
2023/07/17 04:08:58;;;;;;;7.07;3.53;;;15.50;99.90;;;;;;4839578;28;89254;-36
2023/07/17 04:11:24;;;;;;;3.97;3.30;;;15.50;99.90;;;;;;4826296;29;90946;-42
2023/07/17 04:13:53;;;;;;;7.78;4.63;;;15.50;99.90;;;;;;4825796;29;90206;-33
2023/07/17 04:16:20;;;;;;;5.00;4.18;;;15.50;99.90;;;;;;4825162;29;89976;-34
2023/07/17 04:18:46;;;;;;;4.43;4.03;;;15.50;99.90;;;;;;4814666;29;89070;-33
2023/07/17 04:21:12;;;;;;;7.32;4.05;;;15.40;99.90;;;;;;4826098;29;90079;-41
2023/07/17 04:23:37;;;;;;;4.63;4.20;;;15.40;99.90;;;;;;4825843;29;89889;-38
2023/07/17 04:26:03;;;;;;;5.60;4.57;;;15.40;99.90;;;;;;4825329;29;89711;-40
2023/07/17 04:28:28;;;;;;;6.15;5.18;;;15.40;99.90;;;;;;4826757;29;89459;-33
2023/07/17 04:30:54;;;;;;;8.52;5.40;;;15.40;99.90;;;;;;4825725;29;90330;-34
2023/07/17 04:33:20;;;;;;;6.95;4.68;;;15.40;99.90;;;;;;4824859;29;90127;-37
2023/07/17 04:35:45;;;;;;;6.00;4.53;;;15.40;99.90;;;;;;4825712;29;90649;-38
2023/07/17 04:38:11;;;;;;;9.75;4.45;;;15.60;99.90;;;;;;4825855;29;89253;-38
2023/07/17 04:40:37;;;;;;;8.40;4.68;;;15.60;99.90;;;;;;4825888;29;92723;-37
2023/07/17 04:43:03;;;;;;;6.25;4.00;;;15.80;99.90;;;;;;4825363;29;89278;-33
2023/07/17 04:45:29;;;;;;;11.85;4.53;;;16.00;99.90;;;;;;4833329;29;89555;-34
2023/07/17 04:47:55;;;;;;;7.40;5.55;;;16.00;99.90;;;;;;4828654;28;87893;-37
2023/07/17 04:50:25;;;;;;;6.88;5.28;;;16.30;99.90;;;;;;4825389;29;90379;-38
2023/07/17 04:52:51;;;;;;;7.72;5.22;;;16.40;99.90;;;;;;4824971;29;89822;-39
2023/07/17 04:55:17;;;;;;;5.53;4.30;;;16.50;99.90;;;;;;4826632;29;90025;-34
2023/07/17 04:57:43;;;;;;;9.45;4.85;;;16.60;99.90;;;;;;4838915;28;88337;-33
2023/07/17 05:00:10;;;;;;;5.32;4.10;;;16.80;99.90;;;;;;4824977;29;89723;-36
2023/07/17 05:02:35;;;;;;;4.32;3.90;;;16.80;99.90;;;;;;4812982;29;90597;-40
2023/07/17 05:05:01;;;;;;;9.95;4.70;;;16.90;99.90;;;;;;4824169;29;89307;-35
2023/07/17 05:07:27;;;;;;;6.88;4.97;;;16.90;99.90;;;;;;4825690;29;88065;-36
2023/07/17 05:09:53;;;;;;;7.43;4.07;;;17.00;99.90;;;;;;4823371;29;92226;-36
2023/07/17 05:12:18;;;;;;;7.47;4.93;;;17.20;99.90;;;;;;4825395;29;89912;-33
2023/07/17 05:14:44;;;;;;;7.15;4.43;;;17.40;99.90;;;;;;4825306;29;89926;-35
2023/07/17 05:17:09;;;;;;;6.10;4.43;;;17.60;99.90;;;;;;4836113;29;88894;-44
2023/07/17 05:19:35;;;;;;;5.88;3.88;;;17.60;99.90;;;;;;4823073;29;91102;-42
2023/07/17 05:22:01;;;;;;;6.25;4.65;;;17.70;99.90;;;;;;4824307;29;90699;-43
2023/07/17 05:24:26;;;;;;;7.60;5.40;;;17.70;99.90;;;;;;4823298;29;89493;-34
2023/07/17 05:26:52;;;;;;;14.60;4.47;;;17.80;99.90;;;;;;4825068;29;89092;-36
2023/07/17 05:29:17;;;;;;;4.95;4.10;;;17.80;99.90;;;;;;4825604;29;89717;-35
2023/07/17 05:31:43;;;;;;;9.13;4.75;;;18.00;99.90;;;;;;4826640;29;89042;-39
2023/07/17 05:34:09;;;;;;;9.30;5.10;;;18.30;99.90;;;;;;4834731;29;90137;-45
2023/07/17 05:36:34;;;;;;;5.35;4.32;;;18.40;99.90;;;;;;4824083;29;88883;-38
2023/07/17 05:39:00;;;;;;;10.73;5.05;;;18.20;99.90;;;;;;4824612;29;90984;-43
2023/07/17 05:41:26;;;;;;;6.25;3.97;;;18.20;99.90;;;;;;4824667;29;90062;-33
2023/07/17 05:43:51;;;;;;;5.88;4.18;;;18.20;99.90;;;;;;4833270;29;89379;-39
2023/07/17 05:46:17;;;;;;;5.63;4.50;;;18.40;99.90;;;;;;4827095;29;90783;-43
2023/07/17 05:48:42;;;;;;;6.68;4.35;;;18.50;99.90;;;;;;4825147;29;90292;-35
2023/07/17 05:51:08;;;;;;;8.35;3.70;;;18.40;99.90;;;;;;4823676;29;89047;-44
2023/07/17 05:53:34;;;;;;;8.13;4.43;;;18.50;99.90;;;;;;4824664;29;90292;-35
2023/07/17 05:56:00;;;;;;;5.53;4.40;;;18.60;99.90;;;;;;4823409;29;88501;-36
2023/07/17 05:58:26;;;;;;;5.78;4.38;;;18.40;99.90;;;;;;4824803;29;89859;-36
2023/07/17 06:00:51;;;;;;;7.47;4.30;;;18.50;99.90;;;;;;4817953;29;89163;-37
2023/07/17 06:03:17;;;;;;;8.80;4.18;;;18.50;99.90;;;;;;4828257;29;90053;-41
2023/07/17 06:05:43;;;;;;;9.07;4.82;;;18.70;99.90;;;;;;4822791;29;89349;-35
2023/07/17 06:08:10;;;;;;;6.78;4.35;;;18.70;99.90;;;;;;4822101;29;90627;-36
2023/07/17 06:10:36;;;;;;;7.35;4.57;;;18.80;99.90;;;;;;4821872;29;90146;-40
2023/07/17 06:13:02;;;;;;;7.30;4.68;;;19.10;99.90;;;;;;4827953;29;91429;-36
2023/07/17 06:15:28;;;;;;;11.55;4.35;;;19.00;99.90;;;;;;4821637;29;89345;-41
2023/07/17 06:17:54;;;;;;;9.65;4.68;;;19.40;99.90;;;;;;4822878;29;90096;-38
2023/07/17 06:20:20;;;;;;;8.70;4.55;;;19.50;99.90;;;;;;4821057;29;89110;-34
2023/07/17 06:22:47;;;;;;;9.38;4.93;;;19.40;99.90;;;;;;4821875;29;88481;-36
2023/07/17 06:25:12;;;;;;;8.50;5.03;;;19.80;99.90;;;;;;4833756;29;88813;-37
2023/07/17 06:27:38;;;;;;;11.70;4.75;;;19.70;99.90;;;;;;4821751;29;90147;-36
2023/07/17 06:30:05;;;;;;;8.75;4.82;;;20.20;99.90;;;;;;4836708;29;88500;-35
2023/07/17 06:32:31;;;;;;;8.25;5.07;;;20.10;99.90;;;;;;4822115;29;89938;-36
2023/07/17 06:34:57;;;;;;;10.75;4.68;;;19.90;99.90;;;;;;4824194;29;91673;-42
2023/07/17 06:37:22;;;;;;;6.78;4.45;;;20.00;99.90;;;;;;4832257;29;89130;-33
2023/07/17 06:39:48;;;;;;;10.32;4.55;;;19.80;99.90;;;;;;4833370;29;89534;-36
2023/07/17 06:42:14;;;;;;;12.18;5.55;;;20.30;99.90;;;;;;4822086;29;89605;-41
2023/07/17 06:44:39;;;;;;;9.00;5.35;;;20.10;99.90;;;;;;4821844;29;89094;-40
2023/07/17 06:47:05;;;;;;;11.70;5.05;;;19.60;99.90;;;;;;4822922;29;90229;-38
2023/07/17 06:49:31;;;;;;;13.18;5.07;;;19.60;99.90;;;;;;4824998;29;89661;-34
2023/07/17 06:51:56;;;;;;;9.85;5.50;;;19.80;99.90;;;;;;4828079;29;89730;-36
2023/07/17 06:54:22;;;;;;;7.82;5.45;;;19.80;99.90;;;;;;4824948;29;88532;-39
2023/07/17 06:56:47;;;;;;;12.15;4.65;;;19.90;99.90;;;;;;4824467;29;90135;-41
2023/07/17 06:59:13;;;;;;;10.90;5.75;;;20.00;99.90;;;;;;4824036;29;90496;-37
2023/07/17 07:01:39;;;;;;;11.45;5.97;;;19.90;99.90;;;;;;4836431;29;89520;-36
2023/07/17 07:04:05;;;;;;;10.55;5.07;;;19.60;99.90;;;;;;4837595;29;89927;-36
2023/07/17 07:06:31;;;;;;;9.02;5.28;;;19.80;99.90;;;;;;4836942;29;89954;-36
2023/07/17 07:08:57;;;;;;;8.85;6.50;;;19.80;99.90;;;;;;4825231;28;90305;-43
2023/07/17 07:11:22;;;;;;;7.88;5.47;;;19.60;99.90;;;;;;4839169;28;89005;-37
2023/07/17 07:13:48;;;;;;;8.68;5.75;;;19.30;99.90;;;;;;4825406;29;89244;-37
2023/07/17 07:16:14;;;;;;;15.77;6.75;;;19.20;99.90;;;;;;4836778;29;90938;-37
2023/07/17 07:18:39;;;;;;;7.05;4.85;;;19.20;99.90;;;;;;4825089;29;91322;-38
2023/07/17 07:21:06;;;;;;;11.75;6.25;;;19.40;99.90;;;;;;4823723;29;89225;-37
2023/07/17 07:23:31;;;;;;;9.63;6.10;;;20.10;99.90;;;;;;4813362;29;89839;-43
2023/07/17 07:25:57;;;;;;;12.70;6.00;;;20.30;99.90;;;;;;4824363;29;89182;-39
2023/07/17 07:28:23;;;;;;;10.30;5.40;;;20.40;99.90;;;;;;4823357;29;89768;-40
2023/07/17 07:30:55;;;;;;;11.57;5.43;;;20.70;99.90;;;;;;4836196;29;89692;-35
2023/07/17 07:33:21;;;;;;;13.88;5.68;;;20.90;99.90;;;;;;4826492;29;89374;-37
2023/07/17 07:35:46;;;;;;;8.07;5.65;;;20.80;99.90;;;;;;4826737;29;90961;-37
2023/07/17 07:38:12;;;;;;;7.90;5.78;;;20.30;99.90;;;;;;4829263;29;90963;-34
2023/07/17 07:40:38;;;;;;;12.90;6.32;;;20.40;99.90;;;;;;4825782;29;90114;-34
2023/07/17 07:43:03;;;;;;;14.65;6.25;;;20.30;99.90;;;;;;4825911;29;88671;-39
2023/07/17 07:45:29;;;;;;;14.32;5.35;;;20.10;99.90;;;;;;4826998;29;90211;-40
2023/07/17 07:47:56;;;;;;;9.85;5.65;;;20.30;99.90;;;;;;4824895;29;90800;-39
2023/07/17 07:50:22;;;;;;;13.45;5.57;;;20.20;99.90;;;;;;4826260;29;90132;-44
2023/07/17 07:52:48;;;;;;;11.13;6.18;;;20.30;99.90;;;;;;4837702;29;89681;-33
2023/07/17 07:55:13;;;;;;;12.35;6.30;;;20.30;99.90;;;;;;4825822;29;90409;-34
2023/07/17 07:57:39;;;;;;;9.18;5.50;;;20.20;99.90;;;;;;4829213;29;90000;-38
2023/07/17 08:00:06;;;;;;;7.07;4.80;;;20.70;99.90;;;;;;4833180;29;90363;-35
2023/07/17 08:02:31;;;;;;;7.88;5.13;;;21.10;99.90;;;;;;4838820;29;88832;-39
2023/07/17 08:04:57;;;;;;;10.60;5.35;;;20.80;99.90;;;;;;4888020;23;89853;-36
2023/07/17 08:07:22;;;;;;;10.18;5.20;;;21.00;99.90;;;;;;4880732;28;92715;-33
2023/07/17 08:09:48;;;;;;;9.90;5.82;;;21.10;99.90;;;;;;4882393;28;89823;-40
2023/07/17 08:12:15;;;;;;;13.23;5.30;;;21.00;99.90;;;;;;4895637;28;90420;-34
2023/07/17 08:14:41;;;;;;;14.15;6.10;;;20.70;99.90;;;;;;4893123;28;90293;-41
2023/07/17 08:17:07;;;;;;;9.38;4.40;;;20.90;99.90;;;;;;4881218;28;89002;-36
2023/07/17 08:19:32;;;;;;;14.48;4.53;;;21.40;99.90;;;;;;4880892;28;89380;-33
2023/07/17 08:21:58;;;;;;;10.65;4.80;;;21.50;99.90;;;;;;4881979;28;89078;-39
2023/07/17 08:24:23;;;;;;;12.82;4.72;;;20.80;99.90;;;;;;4880555;28;90013;-39
2023/07/17 08:26:49;;;;;;;9.32;4.88;;;21.00;99.90;;;;;;4888907;28;90244;-43
2023/07/17 08:29:15;;;;;;;7.22;4.03;;;21.00;99.90;;;;;;4886194;28;88939;-35
2023/07/17 08:31:41;;;;;;;9.98;4.65;;;20.80;99.90;;;;;;4881126;28;88910;-36
2023/07/17 08:34:06;;;;;;;10.40;4.55;;;21.00;99.90;;;;;;4873381;28;90926;-35
2023/07/17 08:36:33;;;;;;;8.30;4.13;;;20.70;99.90;;;;;;4891875;28;92351;-37
2023/07/17 08:38:59;;;;;;;11.27;4.80;;;20.70;99.90;;;;;;4901190;28;90155;-41
2023/07/17 08:41:25;;;;;;;8.32;4.53;;;20.60;99.90;;;;;;4870246;28;88669;-36
2023/07/17 08:43:52;;;;;;;9.27;4.45;;;20.50;99.90;;;;;;4881004;28;89547;-33
2023/07/17 08:46:18;;;;;;;6.03;4.55;;;20.20;99.90;;;;;;4900806;28;89509;-34
2023/07/17 08:48:45;;;;;;;5.35;4.07;;;19.90;99.90;;;;;;4891312;28;89690;-35
2023/07/17 08:51:14;;;;;;;4.18;3.60;;;20.10;99.90;;;;;;4890367;28;88817;-34
2023/07/17 08:53:42;;;;;;;6.57;4.30;;;20.10;99.90;;;;;;4862816;28;90186;-36
2023/07/17 08:56:08;;;;;;;7.93;3.92;;;20.20;99.90;;;;;;4895850;28;89121;-42
2023/07/17 08:58:35;;;;;;;6.85;4.32;;;20.00;99.90;;;;;;4889788;28;89926;-36
2023/07/17 09:01:01;;;;;;;10.15;5.47;;;20.10;99.90;;;;;;4897577;28;88938;-33
2023/07/17 09:03:27;;;;;;;5.97;4.50;;;20.40;99.90;;;;;;4885552;28;90647;-40
2023/07/17 09:05:53;;;;;;;8.63;4.57;;;20.60;99.90;;;;;;4869509;28;89666;-38
2023/07/17 09:08:19;;;;;;;8.00;5.07;;;20.50;99.90;;;;;;4893278;28;90119;-32
2023/07/17 09:10:45;;;;;;;6.03;4.68;;;20.40;99.90;;;;;;4889046;28;89459;-39
2023/07/17 09:13:11;;;;;;;6.38;4.30;;;20.20;99.90;;;;;;4897527;28;90696;-36
2023/07/17 09:15:38;;;;;;;7.43;4.40;;;20.00;99.90;;;;;;4870066;28;89836;-36
2023/07/17 09:18:04;;;;;;;10.90;5.13;;;20.10;99.90;;;;;;4881175;28;90058;-35
2023/07/17 09:20:30;;;;;;;7.38;4.80;;;20.10;99.90;;;;;;4887536;28;90152;-33
2023/07/17 09:22:59;;;;;;;11.98;4.95;;;20.50;99.90;;;;;;4897110;28;89141;-42
2023/07/17 09:25:29;;;;;;;7.80;4.55;;;20.40;99.90;;;;;;4890876;28;91091;-37
2023/07/17 09:27:56;;;;;;;10.35;3.80;;;20.30;99.90;;;;;;4892377;28;91510;-39
2023/07/17 09:30:24;;;;;;;17.47;4.77;;;20.50;99.90;;;;;;4878679;28;87814;-40
2023/07/17 09:32:50;;;;;;;;;;;21.10;99.90;;;;;;4863321;28;89864;-35
2023/07/17 09:35:23;;;;;;;11.27;5.10;;;20.80;99.90;;;;;;4872778;28;89094;-35
2023/07/17 09:37:49;;;;;;;6.38;4.80;;;20.90;99.90;;;;;;4888376;28;89472;-34
2023/07/17 09:40:18;;;;;;;5.85;4.20;;;21.10;99.90;;;;;;4897710;28;89560;-41
2023/07/17 09:42:45;;;;;;;5.53;3.85;;;21.60;99.90;;;;;;4899197;28;91555;-38
2023/07/17 09:45:12;;;;;;;7.82;4.47;;;21.80;99.90;;;;;;4879807;28;90249;-41
2023/07/17 09:47:39;;;;;;;7.57;3.72;;;21.40;99.90;;;;;;4879692;28;89110;-35
2023/07/17 09:50:07;;;;;;;6.57;4.43;;;20.60;99.90;;;;;;4863676;28;89737;-34
2023/07/17 09:52:33;;;;;;;12.07;5.22;;;20.50;99.90;;;;;;4878346;28;90228;-36
2023/07/17 09:55:00;;;;;;;9.57;4.60;;;20.20;99.90;;;;;;4881603;28;89636;-34
2023/07/17 09:57:36;;;;;;;7.50;5.20;;;20.10;99.90;;;;;;4885228;28;89268;-41
2023/07/17 10:00:29;;;;;;;10.73;5.00;;;19.70;99.90;;;;;;4889113;28;89326;-33
2023/07/17 10:03:09;;;;;;;6.03;4.80;;;19.80;99.90;;;;;;4867978;28;90682;-39
2023/07/17 10:05:37;;;;;;;8.63;5.32;;;20.00;99.90;;;;;;4878908;28;89225;-39
2023/07/17 10:08:12;;;;;;;7.28;3.92;;;20.20;99.90;;;;;;4877230;28;89475;-35
2023/07/17 10:10:38;;;;;;;8.43;4.35;;;20.00;99.90;;;;;;4875988;28;88967;-36
2023/07/17 10:13:06;;;;;;;9.98;4.55;;;19.90;99.90;;;;;;4871390;28;88986;-42
2023/07/17 10:15:32;;;;;;;7.60;3.35;;;19.90;99.90;;;;;;4891583;28;91615;-38
2023/07/17 10:17:58;;;;;;;6.25;3.28;;;19.80;99.90;;;;;;4877708;28;90567;-35
2023/07/17 10:20:25;;;;;;;10.32;4.28;;;20.10;99.90;;;;;;4879228;28;90211;-40
2023/07/17 10:22:51;;;;;;;4.88;3.42;;;20.40;99.90;;;;;;4884649;28;90051;-37
2023/07/17 10:25:19;;;;;;;5.47;2.90;;;20.40;99.90;;;;;;4878857;28;88610;-39
2023/07/17 10:27:50;;;;;;;7.07;4.18;;;20.70;99.90;;;;;;4888190;28;90316;-43
2023/07/17 10:30:26;;;;;;;8.52;3.75;;;20.80;99.90;;;;;;4881919;28;88876;-44
2023/07/17 10:33:14;;;;;;;5.20;2.95;;;20.80;99.90;;;;;;4882575;28;90019;-37
2023/07/17 10:35:48;;;;;;;4.97;3.15;;;20.60;99.90;;;;;;4879295;28;90089;-38
2023/07/17 10:38:25;;;;;;;7.68;4.03;;;20.40;99.90;;;;;;4887350;28;89650;-36
2023/07/17 10:41:12;;;;;;;4.13;2.40;;;20.30;99.90;;;;;;4886775;28;90993;-39
2023/07/17 10:43:50;;;;;;;4.22;3.20;;;20.20;99.90;;;;;;4873174;28;91148;-36
2023/07/17 10:46:16;;;;;;;5.13;3.72;;;20.50;99.90;;;;;;4871657;28;89933;-42
2023/07/17 10:48:41;;;;;;;6.22;2.83;;;20.70;99.90;;;;;;4860363;28;89996;-38
2023/07/17 10:51:07;;;;;;;4.72;2.67;;;20.70;99.90;;;;;;4874262;28;90220;-34
2023/07/17 10:53:33;;;;;;;8.32;3.28;;;20.70;99.90;;;;;;4885385;28;90803;-36
2023/07/17 10:55:58;;;;;;;4.32;2.95;;;20.80;99.90;;;;;;4884189;28;90888;-33
2023/07/17 10:58:25;;;;;;;10.63;3.35;;;20.90;99.90;;;;;;4888712;28;88335;-35
2023/07/17 11:00:51;;;;;;;8.30;3.75;;;21.00;99.90;;;;;;4885892;28;88853;-34
2023/07/17 11:03:18;;;;;;;6.43;3.25;;;21.10;99.90;;;;;;4876567;28;89844;-38
2023/07/17 11:05:45;;;;;;;7.40;3.72;;;21.30;99.90;;;;;;4867873;28;90111;-33
2023/07/17 11:08:14;;;;;;;7.32;3.45;;;21.50;99.90;;;;;;4868265;28;90441;-37
2023/07/17 11:10:44;;;;;;;4.68;3.00;;;21.70;99.90;;;;;;4875199;28;88407;-40
2023/07/17 11:13:10;;;;;;;5.57;3.63;;;22.00;99.90;;;;;;4898324;28;89059;-36
2023/07/17 11:15:37;;;;;;;9.48;4.68;;;21.90;99.90;;;;;;4888257;28;89063;-40
2023/07/17 11:18:04;;;;;;;4.65;3.80;;;21.60;99.90;;;;;;4898608;28;90674;-40
2023/07/17 11:20:32;;;;;;;4.38;3.35;;;21.30;99.90;;;;;;4880488;28;88302;-39
2023/07/17 11:22:58;;;;;;;5.28;3.88;;;21.00;99.90;;;;;;4878360;28;90407;-33
2023/07/17 11:25:28;;;;;;;6.07;3.00;;;21.10;99.90;;;;;;4870656;28;89816;-38
2023/07/17 11:27:55;;;;;;;5.82;2.78;;;21.00;99.90;;;;;;4865758;28;89743;-37
2023/07/17 11:30:29;;;;;;;5.47;3.60;;;20.90;99.90;;;;;;4875129;28;89503;-36
2023/07/17 11:33:15;;;;;;;4.88;2.92;;;20.90;99.90;;;;;;4873114;28;90514;-41
2023/07/17 11:35:42;;;;;;;6.70;4.07;;;21.10;99.90;;;;;;4861972;28;90074;-40
2023/07/17 11:38:13;;;;;;;10.02;4.53;;;21.20;99.90;;;;;;4861915;28;91222;-37
2023/07/17 11:40:54;;;;;;;4.25;2.88;;;21.40;99.90;;;;;;4861979;28;90387;-37
2023/07/17 11:43:27;;;;;;;7.60;4.03;;;21.40;99.90;;;;;;4874881;28;89945;-37
2023/07/17 11:45:55;;;;;;;6.63;3.13;;;21.40;99.90;;;;;;4873140;28;89698;-34
2023/07/17 11:48:23;;;;;;;4.45;2.97;;;21.40;99.90;;;;;;4872522;28;90500;-37
2023/07/17 11:50:49;;;;;;;9.50;3.42;;;21.40;99.90;;;;;;4869876;28;90735;-42
2023/07/17 11:53:16;;;;;;;3.90;2.83;;;21.70;99.90;;;;;;4871145;28;91444;-38
2023/07/17 11:55:43;;;;;;;3.75;2.17;;;21.60;97.90;;;;;;4883578;28;89732;-38
2023/07/17 11:58:19;;;;;;;4.72;2.75;;;21.70;99.90;;;;;;4878142;28;89362;-35
2023/07/17 12:00:47;;;;;;;3.10;2.33;;;21.50;92.40;;;;;;4885047;28;90055;-36
2023/07/17 12:03:13;;;;;;;4.25;2.00;;;21.70;98.60;;;;;;4880001;28;90346;-36
2023/07/17 12:05:39;;;;;;;3.53;2.42;;;21.90;99.90;;;;;;4872725;28;89135;-31
2023/07/17 12:08:06;;;;;;;2.72;2.35;;;21.70;98.30;;;;;;4881926;28;89347;-33
2023/07/17 12:10:33;;;;;;;2.10;1.65;;;21.90;99.90;;;;;;4879196;28;90524;-37
2023/07/17 12:13:00;;;;;;;7.32;2.72;;;22.00;97.50;;;;;;4872869;28;89254;-33
2023/07/17 12:15:27;;;;;;;5.15;2.35;;;21.80;94.90;;;;;;4879364;28;90134;-34
2023/07/17 12:17:54;;;;;;;3.80;1.92;;;21.80;99.90;;;;;;4882996;28;89459;-37
2023/07/17 12:20:24;;;;;;;3.50;2.33;;;21.70;99.80;;;;;;4866160;28;90289;-38
2023/07/17 12:22:52;;;;;;;6.18;2.92;;;21.70;98.40;;;;;;4872239;28;90312;-34
2023/07/17 12:25:18;;;;;;;;;;;21.60;98.80;;;;;;4870890;28;89652;-32
2023/07/17 12:27:44;;;;;;;3.40;2.28;;;21.60;95.90;;;;;;4883615;28;89961;-40
2023/07/17 12:30:11;;;;;;;2.40;1.80;;;21.50;92.60;;;;;;4877248;28;88585;-34
2023/07/17 12:32:38;;;;;;;5.28;2.17;;;21.50;92.60;;;;;;4884667;28;89637;-34
2023/07/17 12:35:05;;;;;;;4.75;2.17;;;21.30;91.70;;;;;;4888301;28;89285;-36
2023/07/17 12:37:31;;;;;;;2.30;2.10;;;21.40;96.50;;;;;;4886388;28;91238;-33
2023/07/17 12:39:57;;;;;;;2.38;1.92;;;21.30;97.40;;;;;;4874327;28;89081;-36
2023/07/17 12:42:23;;;;;;;9.35;2.15;;;20.90;96.30;;;;;;4887680;28;90172;-34